ADDS METAR Data INFO
IDs: Format: Raw Decoded Include TAF

Data at: 2043 UTC 19 Jul 2018

KAKO 191953Z AUTO VRB03KT 10SM CLR 34/07 A3006 RMK AO2 SLP111 T03390067
KAKO 191853Z AUTO 27007KT 10SM CLR 34/11 A3008 RMK AO2 SLP114 T03390106
KAKO 191753Z AUTO 28008KT 240V300 10SM CLR 33/12 A3009 RMK AO2 SLP119 T03280122 10328 20167 56005
KAKO 191653Z AUTO 18004KT 7SM FEW002 31/12 A3009 RMK AO2 SLP122 T03110122
KAKO 191639Z AUTO 00000KT 4SM HZ FEW002 30/12 A3009 RMK AO2 T03000117
KAKO 191553Z AUTO VRB04KT 10SM CLR 28/14 A3010 RMK AO2 SLP125 T02830144
KAKO 191453Z AUTO 35006KT 9SM CLR 26/15 A3011 RMK AO2 SLP131 T02560150 53009
KAKO 191353Z AUTO 33005KT 10SM CLR 22/16 A3010 RMK AO2 SLP127 T02170156
KAKO 191253Z AUTO 21003KT 10SM CLR 18/16 A3007 RMK AO2 SLP117 T01830161
KAKO 191153Z AUTO 30007KT 10SM CLR 17/16 A3007 RMK AO2 SLP118 T01670161 10200 20156 53001
KAKO 191053Z AUTO 04006KT 10SM CLR 17/16 A3006 RMK AO2 SLP112 T01670156
KAKO 190953Z AUTO 07003KT 10SM CLR 18/16 A3006 RMK AO2 SLP112 T01780161
KAKO 190853Z AUTO 12005KT 10SM CLR 17/16 A3007 RMK AO2 SLP115 T01720156 56006
KAKO 190753Z AUTO 09007KT 10SM CLR 17/15 A3007 RMK AO2 SLP118 T01720150
KAKO 190653Z AUTO 09005KT 10SM CLR 18/15 A3008 RMK AO2 SLP121 T01830150 403330156
KAKO 190553Z AUTO 09008KT 10SM CLR 19/15 A3009 RMK AO2 SLP126 T01890150 10333 20189 50011
KAKO 190453Z AUTO 07008KT 10SM CLR 20/15 A3010 RMK AO2 SLP131 T02000150
KAKO 190353Z AUTO 06007KT 10SM CLR 22/14 A3009 RMK AO2 SLP130 T02220144
KAKO 190253Z AUTO 08008KT 10SM CLR 22/14 A3005 RMK AO2 SLP120 T02220144 53006
KAKO 190153Z AUTO 08011KT 10SM CLR 27/14 A3004 RMK AO2 SLP113 T02720139
KAKO 190053Z AUTO 04009KT 10SM CLR 32/09 A3003 RMK AO2 SLP103 T03220089
KAKO 182353Z AUTO VRB03KT 10SM CLR 33/09 A3004 RMK AO2 SLP104 T03330089 10333 20283 56015
KAKO 182253Z AUTO VRB03KT 10SM CLR 33/09 A3005 RMK AO2 SLP109 T03280094
KAKO 182153Z AUTO 29004KT 10SM CLR 33/10 A3007 RMK AO2 SLP114 T03280100
KAKO 182053Z AUTO 29010G16KT 10SM CLR 33/09 A3009 RMK AO2 SLP120 T03330089 58014
KAKO 181953Z AUTO 29008KT 10SM CLR 32/09 A3011 RMK AO2 SLP128 T03170089
KAKO 181853Z AUTO 33006KT 10SM CLR 31/14 A3012 RMK AO2 SLP133 T03110139
KAKO 181753Z AUTO 28008KT 10SM CLR 29/16 A3013 RMK AO2 SLP140 T02890156 10289 20161 58005
KAKO 181653Z AUTO VRB05KT 10SM CLR 26/16 A3015 RMK AO2 SLP149 T02610161
KAKO 181553Z AUTO 25006KT 10SM CLR 23/17 A3014 RMK AO2 SLP150 T02330167
KAKO 181453Z AUTO 13003KT 10SM CLR 21/17 A3015 RMK AO2 SLP155 T02110167 51003
KAKO 181402Z AUTO 12006KT 10SM SCT008 19/17 A3014 RMK AO2 T01940167
KAKO 181353Z AUTO 14007KT 10SM BKN008 18/17 A3014 RMK AO2 CIG 006V011 SLP154 T01830172
KAKO 181343Z AUTO 12008KT 10SM BKN009 18/17 A3014 RMK AO2 CIG 003V010 T01780172
KAKO 181332Z AUTO 11008KT 8SM BKN005 BKN008 17/17 A3014 RMK AO2 CIG 002V008 T01720172
KAKO 181316Z AUTO 12009KT 4SM BR OVC003 18/18 A3014 RMK AO2 T01780178
KAKO 181306Z AUTO 11010KT 2SM BR OVC001 17/17 A3014 RMK AO2 T01720172
KAKO 181303Z AUTO 11009KT 1 1/4SM BR OVC001 17/17 A3015 RMK AO2 T01720172
KAKO 181253Z AUTO 10008KT 1/4SM FG VV001 17/17 A3015 RMK AO2 SLP155 T01720172
KAKO 181216Z AUTO 09010KT 3/4SM BR VV001 17/17 A3013 RMK AO2 T01670167
KAKO 181214Z AUTO 10009KT 1 1/2SM BR BKN002 17/16 A3013 RMK AO2 T01670161
KAKO 181211Z AUTO 10008KT 7SM SCT002 16/16 A3013 RMK AO2 T01610161
KAKO 181153Z AUTO 10007KT 10SM CLR 16/15 A3013 RMK AO2 SLP149 70002 T01610150 10189 20156 53004
KAKO 181053Z AUTO 04009KT 10SM CLR 16/14 A3014 RMK AO2 SLP149 T01560144
KAKO 180953Z AUTO 18009KT 10SM CLR 17/15 A3010 RMK AO2 SLP131 T01720150
KAKO 180853Z AUTO 17011KT 10SM CLR 17/16 A3012 RMK AO2 SLP139 T01720156 58010